Time;durP1;ratioP1;P1;durP2;ratioP2;P2;SDS_P1;SDS_P2;PMS_P1;PMS_P2;Temp;Humidity;BMP_temperature;BMP_pressure;BME280_temperature;BME280_humidity;BME280_pressure;Samples;Min_cycle;Max_cycle;Signal;HPM_P1;HPM_P2
2022/06/19 00:01:44;;;;;;;7.18;4.43;;;;;;;21.18;62.53;95636.00;5080745;28;20024;-69
2022/06/19 00:04:10;;;;;;;5.28;4.53;;;;;;;21.20;62.68;95632.28;5088032;28;20028;-69
2022/06/19 00:06:36;;;;;;;6.15;4.70;;;;;;;21.17;63.28;95636.19;5085232;28;20391;-69
2022/06/19 00:09:03;;;;;;;7.00;5.20;;;;;;;21.12;62.81;95633.34;5074623;28;20031;-69
2022/06/19 00:11:29;;;;;;;6.00;4.30;;;;;;;21.24;61.93;95633.50;5090695;28;20039;-69
2022/06/19 00:13:54;;;;;;;10.48;4.85;;;;;;;21.24;61.63;95630.81;5088886;28;20036;-69
2022/06/19 00:16:20;;;;;;;6.68;4.82;;;;;;;21.19;62.05;95636.81;5086434;28;20032;-69
2022/06/19 00:18:45;;;;;;;8.00;4.80;;;;;;;21.13;61.96;95632.28;5086875;28;20116;-69
2022/06/19 00:21:12;;;;;;;5.35;4.85;;;;;;;21.09;62.67;95629.22;5075726;28;20070;-69
2022/06/19 00:23:37;;;;;;;6.43;4.32;;;;;;;21.06;62.56;95626.94;5082522;28;20044;-69
2022/06/19 00:26:03;;;;;;;5.70;5.10;;;;;;;21.11;62.53;95635.19;5077856;28;20028;-69
2022/06/19 00:28:29;;;;;;;6.50;4.80;;;;;;;21.08;62.67;95632.91;5079271;28;20020;-69
2022/06/19 00:30:54;;;;;;;9.02;5.38;;;;;;;21.06;62.61;95632.31;5083106;28;20021;-69
2022/06/19 00:33:20;;;;;;;6.47;5.10;;;;;;;21.09;62.08;95626.53;5079784;28;20020;-69
2022/06/19 00:35:46;;;;;;;6.60;5.13;;;;;;;21.00;63.35;95625.97;5080375;28;20027;-69
2022/06/19 00:38:12;;;;;;;7.55;4.85;;;;;;;20.95;62.90;95625.75;5072230;28;20074;-69
2022/06/19 00:40:38;;;;;;;7.15;5.15;;;;;;;20.94;62.97;95626.78;5078757;28;20024;-69
2022/06/19 00:43:04;;;;;;;6.05;5.35;;;;;;;20.96;63.44;95624.72;5085151;28;20025;-69
2022/06/19 00:45:51;;;;;;;9.35;5.53;;;;;;;20.93;63.51;95621.66;5080880;28;20076;-69
2022/06/19 00:48:19;;;;;;;8.90;6.03;;;;;;;20.87;63.92;95621.44;5074390;28;20024;-69
2022/06/19 00:50:47;;;;;;;7.50;5.60;;;;;;;20.84;63.91;95637.91;5080839;28;20479;-70
2022/06/19 00:53:17;;;;;;;6.85;5.80;;;;;;;20.83;63.70;95633.59;5077570;28;20032;-69
2022/06/19 00:55:45;;;;;;;10.20;5.50;;;;;;;20.84;64.21;95634.44;5080899;28;20032;-69
2022/06/19 00:58:19;;;;;;;8.73;5.82;;;;;;;20.70;65.05;95630.91;5080200;28;20029;-69
2022/06/19 01:00:49;;;;;;;7.90;5.18;;;;;;;20.65;64.56;95630.69;5085882;28;20058;-69
2022/06/19 01:03:19;;;;;;;7.05;6.38;;;;;;;20.55;65.19;95623.09;5082233;28;20049;-69
2022/06/19 01:05:46;;;;;;;6.75;6.05;;;;;;;20.58;64.89;95620.03;5076307;28;20032;-69
2022/06/19 01:08:12;;;;;;;8.50;5.70;;;;;;;20.57;64.87;95613.03;5065990;28;20395;-69
2022/06/19 01:10:41;;;;;;;9.13;5.68;;;;;;;20.57;64.73;95613.84;5085349;28;20029;-69
2022/06/19 01:13:07;;;;;;;5.88;4.90;;;;;;;20.51;65.19;95611.16;5076699;28;20059;-69
2022/06/19 01:15:32;;;;;;;6.43;5.28;;;;;;;20.53;65.37;95617.97;5082879;28;20060;-69
2022/06/19 01:18:03;;;;;;;6.97;5.13;;;;;;;20.50;65.25;95615.69;5083390;28;20032;-69
2022/06/19 01:20:32;;;;;;;5.63;5.03;;;;;;;20.53;64.86;95612.63;5079981;28;20089;-69
2022/06/19 01:23:25;;;;;;;6.07;5.28;;;;;;;20.56;65.88;95612.19;5084061;28;20111;-69
2022/06/19 01:25:51;;;;;;;11.85;6.10;;;;;;;20.57;64.99;95613.03;5079024;28;20020;-69
2022/06/19 01:28:46;;;;;;;7.03;5.55;;;;;;;20.56;64.29;95616.75;5081249;28;20449;-69
2022/06/19 01:31:35;;;;;;;5.80;5.35;;;;;;;20.51;65.12;95617.34;5079089;28;20067;-69
2022/06/19 01:34:31;;;;;;;6.45;5.85;;;;;;;20.36;66.33;95616.72;5073022;28;20183;-69
2022/06/19 01:37:12;;;;;;;5.60;5.15;;;;;;;20.36;66.17;95616.72;5071197;28;20040;-69
2022/06/19 01:39:43;;;;;;;7.70;6.88;;;;;;;20.28;67.19;95609.72;5074924;28;20422;-69
2022/06/19 01:42:11;;;;;;;8.90;6.35;;;;;;;20.15;67.24;95606.03;5075127;28;20070;-69
2022/06/19 01:44:37;;;;;;;7.88;5.90;;;;;;;20.18;66.73;95607.47;5076978;28;20488;-69
2022/06/19 01:47:04;;;;;;;9.30;6.18;;;;;;;20.20;66.51;95607.28;5076541;28;20394;-69
2022/06/19 01:49:32;;;;;;;9.10;5.90;;;;;;;20.19;67.43;95614.44;5075507;28;20094;-69
2022/06/19 01:51:58;;;;;;;8.07;5.97;;;;;;;20.17;67.38;95606.66;5078925;28;20028;-69
2022/06/19 01:54:28;;;;;;;8.27;6.57;;;;;;;20.19;66.86;95598.41;5072394;28;20077;-69
2022/06/19 01:56:55;;;;;;;12.65;7.90;;;;;;;20.15;67.52;95602.53;5082967;28;20082;-69
2022/06/19 01:59:22;;;;;;;10.82;7.18;;;;;;;20.14;67.15;95595.53;5080552;28;20021;-69
2022/06/19 02:01:51;;;;;;;12.05;6.50;;;;;;;20.11;67.96;95593.28;5079357;28;20063;-69
2022/06/19 02:04:16;;;;;;;9.02;7.35;;;;;;;19.93;68.63;95589.34;5084591;28;20028;-69
2022/06/19 02:06:46;;;;;;;8.57;7.57;;;;;;;19.88;68.92;95589.91;5074663;28;20082;-69
2022/06/19 02:09:15;;;;;;;9.93;7.00;;;;;;;19.83;69.36;95581.69;5077340;28;20052;-69
2022/06/19 02:11:41;;;;;;;9.77;6.88;;;;;;;19.86;68.79;95581.28;5078810;28;20040;-69
2022/06/19 02:14:08;;;;;;;7.65;6.93;;;;;;;19.92;68.38;95577.03;5076286;28;20048;-69
2022/06/19 02:16:36;;;;;;;13.57;8.00;;;;;;;19.99;68.00;95580.50;5083177;28;20100;-69
2022/06/19 02:19:02;;;;;;;10.52;7.85;;;;;;;19.93;68.28;95577.84;5071996;28;20544;-69
2022/06/19 02:21:35;;;;;;;10.45;7.30;;;;;;;19.82;69.21;95573.91;5078003;28;20016;-69
2022/06/19 02:24:01;;;;;;;10.65;7.30;;;;;;;19.80;69.41;95579.44;5072820;28;20033;-69
2022/06/19 02:26:27;;;;;;;10.40;8.25;;;;;;;19.81;69.45;95572.25;5078045;28;20028;-69
2022/06/19 02:28:52;;;;;;;10.23;8.05;;;;;;;19.81;69.20;95569.59;5085167;28;20088;-69
2022/06/19 02:31:20;;;;;;;7.85;7.00;;;;;;;19.73;69.37;95567.94;5084902;28;20032;-69
2022/06/19 02:33:51;;;;;;;8.85;8.02;;;;;;;19.67;69.64;95566.88;5077889;28;20423;-69
2022/06/19 02:36:54;;;;;;;9.75;7.85;;;;;;;19.68;70.50;95568.53;5077344;28;20085;-69
2022/06/19 02:39:34;;;;;;;11.55;7.65;;;;;;;19.67;70.20;95561.53;5039558;28;20044;-69
2022/06/19 02:42:15;;;;;;;10.05;8.02;;;;;;;19.70;69.95;95550.44;5081832;28;20032;-69
2022/06/19 02:44:41;;;;;;;11.60;8.70;;;;;;;19.71;69.95;95568.13;5079977;28;20047;-69
2022/06/19 02:47:08;;;;;;;8.90;8.00;;;;;;;19.70;69.74;95560.31;5084870;28;20111;-69
2022/06/19 02:49:34;;;;;;;8.95;8.15;;;;;;;19.71;69.02;95552.09;5082118;28;20028;-69
2022/06/19 02:52:01;;;;;;;10.32;8.07;;;;;;;19.80;69.17;95570.63;5082073;28;20103;-69
2022/06/19 02:54:26;;;;;;;11.18;8.98;;;;;;;19.71;69.82;95557.44;5072779;28;20038;-69
2022/06/19 02:56:52;;;;;;;12.38;8.80;;;;;;;19.66;69.86;95551.88;5072472;28;20025;-69
2022/06/19 02:59:17;;;;;;;10.23;8.43;;;;;;;19.71;69.25;95554.75;5083685;28;20040;-69
2022/06/19 03:01:43;;;;;;;9.93;8.88;;;;;;;19.76;68.85;95554.16;5081422;28;20364;-69
2022/06/19 03:04:18;;;;;;;11.23;9.07;;;;;;;19.78;68.24;95554.78;5074067;28;20028;-69
2022/06/19 03:06:44;;;;;;;11.90;8.63;;;;;;;19.81;68.12;95553.56;5075406;28;20024;-69
2022/06/19 03:09:10;;;;;;;9.80;8.88;;;;;;;19.87;67.67;95553.56;5082784;28;20032;-69
2022/06/19 03:11:35;;;;;;;10.35;8.55;;;;;;;19.85;67.72;95560.13;5081026;28;20028;-69
2022/06/19 03:14:01;;;;;;;10.27;9.18;;;;;;;19.75;68.18;95555.19;5068737;28;20126;-69
2022/06/19 03:16:26;;;;;;;11.57;8.93;;;;;;;19.68;68.62;95557.84;5085636;28;20032;-69
2022/06/19 03:18:52;;;;;;;9.98;8.27;;;;;;;19.62;68.99;95553.31;5078434;28;20028;-69
2022/06/19 03:21:18;;;;;;;13.30;8.15;;;;;;;19.54;69.61;95559.66;5083281;28;20028;-69
2022/06/19 03:23:44;;;;;;;11.20;8.77;;;;;;;19.45;70.26;95542.16;5074324;28;20044;-69
2022/06/19 03:26:09;;;;;;;11.90;8.68;;;;;;;19.41;70.36;95557.78;5078823;28;20477;-69
2022/06/19 03:28:34;;;;;;;9.88;8.38;;;;;;;19.35;70.97;95558.59;5081640;28;20031;-68
2022/06/19 03:31:00;;;;;;;9.68;8.82;;;;;;;19.35;70.67;95561.25;5086528;28;20475;-69
2022/06/19 03:33:25;;;;;;;10.30;9.25;;;;;;;19.36;70.57;95562.06;5075324;28;20021;-69
2022/06/19 03:35:52;;;;;;;13.32;8.30;;;;;;;19.37;70.96;95559.22;5081202;28;20360;-69
2022/06/19 03:38:18;;;;;;;10.32;8.88;;;;;;;19.36;71.57;95562.06;5076641;28;20035;-69
2022/06/19 03:40:43;;;;;;;10.48;8.52;;;;;;;19.29;71.24;95554.88;5086632;28;20025;-69
2022/06/19 03:43:10;;;;;;;9.38;8.40;;;;;;;19.27;71.92;95556.94;5078387;28;20029;-68
2022/06/19 03:45:35;;;;;;;12.02;9.02;;;;;;;19.31;71.16;95558.16;5077526;28;20035;-69
2022/06/19 03:48:01;;;;;;;11.73;10.52;;;;;;;19.28;71.70;95549.72;5079446;28;20111;-69
2022/06/19 03:50:27;;;;;;;13.70;11.07;;;;;;;19.32;72.20;95553.63;5085089;28;20028;-69
2022/06/19 03:52:52;;;;;;;12.45;10.32;;;;;;;19.33;71.44;95548.09;5081709;28;20032;-69
2022/06/19 03:55:18;;;;;;;11.43;10.32;;;;;;;19.38;70.95;95552.00;5080576;28;20938;-69
2022/06/19 03:57:43;;;;;;;11.02;9.55;;;;;;;19.43;70.85;95558.41;5081505;28;20016;-69
2022/06/19 04:00:15;;;;;;;13.85;10.02;;;;;;;19.35;71.10;95553.25;5076271;28;20481;-69
2022/06/19 04:02:42;;;;;;;22.80;10.02;;;;;;;19.21;72.20;95555.03;5075419;28;20025;-69
2022/06/19 04:05:08;;;;;;;12.10;10.90;;;;;;;19.02;72.68;95553.94;5075153;28;20059;-69
2022/06/19 04:07:33;;;;;;;10.35;9.48;;;;;;;18.99;73.52;95557.81;5078502;28;20047;-69
2022/06/19 04:10:00;;;;;;;11.63;10.10;;;;;;;19.04;73.52;95557.22;5078725;28;20078;-69
2022/06/19 04:12:25;;;;;;;11.32;9.98;;;;;;;19.06;73.54;95543.72;5088401;28;20024;-69
2022/06/19 04:14:52;;;;;;;10.80;9.70;;;;;;;19.05;73.35;95548.19;5078355;28;20071;-69
2022/06/19 04:17:17;;;;;;;12.70;10.13;;;;;;;19.06;73.17;95547.19;5078899;28;20025;-69
2022/06/19 04:19:43;;;;;;;10.15;9.25;;;;;;;19.11;73.12;95547.41;5075814;28;20043;-69
2022/06/19 04:22:08;;;;;;;12.68;9.68;;;;;;;19.13;73.44;95550.72;5082459;28;20047;-69
2022/06/19 04:24:34;;;;;;;11.55;9.90;;;;;;;19.07;74.50;95548.81;5078793;28;20845;-69
2022/06/19 04:27:04;;;;;;;11.07;9.27;;;;;;;19.15;73.60;95561.19;5084751;28;20035;-69
2022/06/19 04:29:29;;;;;;;10.63;9.63;;;;;;;19.20;73.13;95564.06;5080252;28;20033;-69
2022/06/19 04:31:56;;;;;;;11.85;9.82;;;;;;;19.26;73.14;95557.13;5075511;28;20035;-69
2022/06/19 04:34:21;;;;;;;12.70;9.85;;;;;;;19.30;73.28;95563.69;5083750;28;20514;-69
2022/06/19 04:36:47;;;;;;;14.00;9.95;;;;;;;19.27;73.33;95558.75;5092346;28;20036;-68
2022/06/19 04:39:12;;;;;;;11.65;10.48;;;;;;;19.28;73.40;95550.56;5092196;28;20028;-69
2022/06/19 04:41:40;;;;;;;14.45;10.57;;;;;;;19.27;73.86;95556.09;5092280;28;20035;-69
2022/06/19 04:44:08;;;;;;;13.98;10.52;;;;;;;19.35;73.36;95545.25;5092398;28;20107;-68
2022/06/19 04:46:33;;;;;;;13.38;10.38;;;;;;;19.39;72.93;95540.31;5091512;28;20028;-69
2022/06/19 04:48:59;;;;;;;11.60;10.43;;;;;;;19.41;73.14;95543.59;5092317;28;20031;-68
2022/06/19 04:51:25;;;;;;;11.25;9.95;;;;;;;19.46;72.66;95536.66;5089795;28;20514;-69
2022/06/19 04:53:53;;;;;;;12.27;11.00;;;;;;;19.49;72.90;95532.75;5087738;28;20399;-69
2022/06/19 04:56:19;;;;;;;15.20;11.82;;;;;;;19.52;72.59;95532.34;5091832;28;20027;-69
2022/06/19 04:58:46;;;;;;;13.25;11.95;;;;;;;19.45;73.41;95527.00;5090160;28;20085;-69
2022/06/19 05:01:23;;;;;;;15.82;11.13;;;;;;;19.44;73.59;95527.19;5091753;28;20368;-69
2022/06/19 05:03:49;;;;;;;12.98;10.98;;;;;;;19.47;73.53;95526.81;5080079;28;20099;-69
2022/06/19 05:06:15;;;;;;;13.63;11.95;;;;;;;19.44;74.10;95529.84;5091840;28;20056;-69
2022/06/19 05:08:40;;;;;;;13.88;11.95;;;;;;;19.53;73.37;95522.47;5091837;28;20063;-69
2022/06/19 05:11:09;;;;;;;14.43;11.55;;;;;;;19.60;73.23;95526.00;5091904;28;20089;-69
2022/06/19 05:13:34;;;;;;;13.65;10.85;;;;;;;19.64;73.59;95524.56;5091818;28;20024;-68
2022/06/19 05:16:09;;;;;;;16.55;11.68;;;;;;;19.80;73.93;95522.53;5090988;28;20082;-68
2022/06/19 05:18:35;;;;;;;13.38;11.40;;;;;;;19.92;72.83;95520.91;5088391;28;20032;-68
2022/06/19 05:21:04;;;;;;;12.40;11.32;;;;;;;20.03;72.80;95524.81;5081275;28;20035;-68
2022/06/19 05:23:33;;;;;;;11.90;10.57;;;;;;;20.25;71.50;95521.94;5091009;28;20105;-69
2022/06/19 05:26:05;;;;;;;16.92;11.57;;;;;;;20.42;71.05;95525.00;5091463;28;20081;-69
2022/06/19 05:28:31;;;;;;;11.55;10.45;;;;;;;20.51;70.98;95529.09;5091296;28;20024;-68
2022/06/19 05:31:00;;;;;;;15.82;11.88;;;;;;;20.64;70.65;95524.75;5091318;28;20325;-68
2022/06/19 05:33:27;;;;;;;13.98;12.07;;;;;;;20.74;69.78;95519.78;5090864;28;20103;-69
2022/06/19 05:35:53;;;;;;;20.92;12.45;;;;;;;20.81;69.84;95522.50;5091262;28;20483;-69
2022/06/19 05:38:20;;;;;;;12.95;11.73;;;;;;;20.83;70.34;95525.78;5091442;28;20024;-68
2022/06/19 05:40:45;;;;;;;14.77;12.52;;;;;;;20.87;69.75;95518.97;5091324;28;20032;-68
2022/06/19 05:43:10;;;;;;;13.93;12.25;;;;;;;20.99;68.89;95527.16;5083966;28;20020;-69
2022/06/19 05:45:36;;;;;;;16.77;12.65;;;;;;;21.12;68.00;95521.75;5083739;28;20066;-69
2022/06/19 05:48:02;;;;;;;12.48;11.20;;;;;;;21.15;68.00;95518.66;5090978;28;20039;-69
2022/06/19 05:50:28;;;;;;;14.82;11.93;;;;;;;21.26;67.40;95525.19;5091281;28;20099;-69
2022/06/19 05:52:53;;;;;;;13.10;11.57;;;;;;;21.30;66.84;95523.72;5090825;28;20458;-69
2022/06/19 05:55:19;;;;;;;16.45;12.40;;;;;;;21.44;66.46;95523.63;5091125;28;20031;-69
2022/06/19 05:57:44;;;;;;;12.60;11.23;;;;;;;21.59;65.99;95524.16;5090859;28;20056;-68
2022/06/19 06:00:10;;;;;;;13.27;11.98;;;;;;;21.75;65.77;95522.03;5090867;28;20051;-69
2022/06/19 06:02:36;;;;;;;14.75;13.10;;;;;;;21.89;65.65;95517.41;5091246;28;20099;-69
2022/06/19 06:05:03;;;;;;;13.63;12.32;;;;;;;22.04;65.06;95515.25;5090822;28;20115;-69
2022/06/19 06:07:29;;;;;;;16.25;11.68;;;;;;;22.20;65.05;95522.94;5062959;28;20020;-68
2022/06/19 06:09:55;;;;;;;13.43;12.02;;;;;;;22.26;64.71;95522.06;5074021;28;20498;-68
2022/06/19 06:12:20;;;;;;;13.40;12.00;;;;;;;22.41;64.20;95511.81;5090765;28;20017;-68
2022/06/19 06:14:45;;;;;;;14.05;12.45;;;;;;;22.58;63.80;95509.41;5090513;28;20482;-68
2022/06/19 06:17:11;;;;;;;15.25;11.95;;;;;;;22.78;62.83;95511.06;5090626;28;20027;-68
2022/06/19 06:19:37;;;;;;;13.35;11.82;;;;;;;22.93;61.76;95504.50;5090749;28;20031;-68
2022/06/19 06:22:04;;;;;;;21.85;11.77;;;;;;;22.99;61.78;95504.41;5090429;28;20012;-69
2022/06/19 06:24:30;;;;;;;16.35;11.63;;;;;;;23.13;61.37;95507.75;5090602;28;20089;-68
2022/06/19 06:26:57;;;;;;;12.52;11.38;;;;;;;23.28;61.19;95498.50;5090598;28;20509;-69
2022/06/19 06:29:23;;;;;;;12.35;11.32;;;;;;;23.51;60.46;95496.94;5090517;28;20372;-69
2022/06/19 06:31:49;;;;;;;16.08;12.35;;;;;;;23.65;59.61;95493.03;5085981;28;20032;-70
2022/06/19 06:34:14;;;;;;;14.77;12.32;;;;;;;23.87;58.79;95490.63;5078088;28;20027;-70
2022/06/19 06:36:40;;;;;;;16.92;11.73;;;;;;;24.15;57.65;95489.16;5089313;28;20020;-66
2022/06/19 06:39:05;;;;;;;13.02;11.60;;;;;;;24.45;57.07;95492.81;5087925;28;20028;-66
2022/06/19 06:41:31;;;;;;;12.57;11.25;;;;;;;24.67;56.01;95493.00;5085195;28;20020;-66
2022/06/19 06:43:56;;;;;;;16.80;12.02;;;;;;;24.98;55.00;95488.31;5071926;28;20395;-66
2022/06/19 06:46:24;;;;;;;14.40;11.25;;;;;;;25.21;54.51;95491.97;5089825;28;20027;-66
2022/06/19 06:48:53;;;;;;;15.07;11.05;;;;;;;25.42;53.70;95492.34;5090240;28;20086;-66
2022/06/19 06:51:24;;;;;;;16.10;11.30;;;;;;;25.68;53.24;95492.84;5089884;28;20028;-66
2022/06/19 06:53:50;;;;;;;15.05;11.32;;;;;;;25.91;52.76;95499.97;5090104;28;20735;-66
2022/06/19 06:56:17;;;;;;;11.40;10.25;;;;;;;26.24;51.90;95490.28;5087102;28;20039;-66
2022/06/19 06:58:42;;;;;;;11.35;10.23;;;;;;;26.58;51.13;95487.53;5087722;28;20054;-66
2022/06/19 07:01:16;;;;;;;14.50;10.82;;;;;;;26.86;50.52;95491.19;5089585;28;20048;-66
2022/06/19 07:03:43;;;;;;;16.10;11.27;;;;;;;27.14;49.33;95492.03;5089445;28;20618;-66
2022/06/19 07:06:09;;;;;;;11.88;10.77;;;;;;;27.50;49.31;95493.50;5089848;28;20039;-66
2022/06/19 07:08:34;;;;;;;15.48;11.15;;;;;;;27.70;48.59;95491.03;5087892;28;20165;-66
2022/06/19 07:11:00;;;;;;;14.23;10.23;;;;;;;27.72;47.79;95494.28;5089091;28;20031;-66
2022/06/19 07:13:25;;;;;;;13.23;10.90;;;;;;;27.71;46.95;95494.56;5089820;28;20016;-66
2022/06/19 07:15:51;;;;;;;15.25;10.10;;;;;;;28.05;45.14;95488.09;5089734;28;20026;-67
2022/06/19 07:18:18;;;;;;;16.33;10.57;;;;;;;27.98;45.98;95489.13;5089531;28;20036;-66
2022/06/19 07:20:43;;;;;;;12.90;10.40;;;;;;;28.04;46.39;95481.84;5089995;28;20394;-66
2022/06/19 07:23:08;;;;;;;14.75;10.05;;;;;;;28.36;45.83;95481.03;5082759;28;20036;-66
2022/06/19 07:25:34;;;;;;;16.95;10.35;;;;;;;28.64;44.45;95476.31;5088158;28;20494;-66
2022/06/19 07:27:59;;;;;;;13.38;9.93;;;;;;;29.09;43.57;95474.13;5089118;28;20028;-67
2022/06/19 07:30:26;;;;;;;13.25;10.27;;;;;;;28.99;43.20;95472.19;5089423;28;20107;-66
2022/06/19 07:32:53;;;;;;;12.77;9.75;;;;;;;29.08;43.54;95458.94;5089470;28;20024;-66
2022/06/19 07:35:19;;;;;;;11.27;9.95;;;;;;;29.50;41.00;95461.78;5089318;28;20035;-67
2022/06/19 07:37:44;;;;;;;14.05;10.07;;;;;;;29.80;40.70;95460.19;5089654;28;20035;-67
2022/06/19 07:40:13;;;;;;;11.68;9.77;;;;;;;29.67;41.60;95464.25;5089828;28;20107;-67
2022/06/19 07:42:38;;;;;;;11.57;9.43;;;;;;;30.05;40.21;95472.16;5089606;28;20034;-66
2022/06/19 07:45:04;;;;;;;12.57;9.43;;;;;;;30.20;39.97;95469.44;5089734;28;20031;-66
2022/06/19 07:50:15;;;;;;;11.27;9.10;;;;;;;30.55;39.35;95464.22;5087163;28;20173;-67
2022/06/19 07:52:43;;;;;;;11.02;9.95;;;;;;;30.42;40.36;95462.91;5089212;28;20507;-66
2022/06/19 07:55:12;;;;;;;10.80;9.70;;;;;;;30.78;39.96;95451.94;5089563;28;20098;-66
2022/06/19 07:57:37;;;;;;;12.38;10.05;;;;;;;30.87;39.06;95450.31;5081374;28;20399;-67
2022/06/19 08:00:09;;;;;;;12.50;9.93;;;;;;;30.98;39.51;95453.78;5088566;28;20039;-67
2022/06/19 08:02:34;;;;;;;15.27;9.45;;;;;;;31.21;38.90;95440.66;5089151;28;20062;-67
2022/06/19 08:05:01;;;;;;;13.93;9.77;;;;;;;31.46;39.10;95446.22;5089336;28;20051;-66
2022/06/19 08:07:28;;;;;;;17.17;9.25;;;;;;;31.81;38.01;95450.63;5089099;28;20032;-66
2022/06/19 08:09:53;;;;;;;14.88;9.00;;;;;;;31.86;37.68;95453.31;5086197;28;20024;-66
2022/06/19 08:12:20;;;;;;;15.40;9.02;;;;;;;31.95;37.15;95442.63;5081643;28;20406;-66
2022/06/19 08:14:45;;;;;;;13.23;8.70;;;;;;;32.04;36.98;95444.75;5088871;28;20026;-66
2022/06/19 08:17:11;;;;;;;15.02;9.32;;;;;;;32.54;35.92;95445.34;5088786;28;20039;-66
2022/06/19 08:19:36;;;;;;;12.25;8.73;;;;;;;32.41;36.07;95440.63;5089210;28;20036;-66
2022/06/19 08:22:02;;;;;;;13.63;8.10;;;;;;;32.39;36.16;95445.53;5090311;28;20017;-66
2022/06/19 08:24:27;;;;;;;15.82;6.82;;;;;;;32.48;32.42;95445.69;5092722;28;20123;-66
2022/06/19 08:27:05;;;;;;;15.93;6.78;;;;;;;32.53;31.38;95443.75;5092573;28;20024;-66
2022/06/19 08:29:31;;;;;;;19.75;6.63;;;;;;;32.72;30.56;95451.16;5092845;28;20024;-66
2022/06/19 08:31:57;;;;;;;13.88;6.60;;;;;;;32.64;29.92;95439.00;5092127;28;20027;-66
2022/06/19 08:34:22;;;;;;;18.02;6.38;;;;;;;32.42;29.89;95436.78;5092503;28;20414;-66
2022/06/19 08:36:48;;;;;;;14.55;6.30;;;;;;;32.63;30.47;95442.03;5092548;28;20473;-66
2022/06/19 08:39:16;;;;;;;12.85;6.10;;;;;;;32.46;29.52;95432.38;5092350;28;20028;-66
2022/06/19 08:42:15;;;;;;;16.52;5.70;;;;;;;32.41;29.17;95430.53;5084337;28;20047;-66
2022/06/19 08:44:53;;;;;;;14.45;6.60;;;;;;;32.70;29.01;95423.41;5087232;28;20065;-65
2022/06/19 08:47:36;;;;;;;10.57;5.63;;;;;;;32.93;28.52;95410.06;5084297;28;20032;-65
2022/06/19 08:50:24;;;;;;;15.88;5.82;;;;;;;32.71;28.10;95412.19;5092130;28;20059;-66
2022/06/19 08:53:27;;;;;;;14.38;6.45;;;;;;;33.06;27.49;95417.53;5078061;28;20020;-65
2022/06/19 08:55:52;;;;;;;18.23;6.18;;;;;;;32.86;28.71;95403.03;5086250;28;20055;-67
2022/06/19 08:58:36;;;;;;;17.85;5.90;;;;;;;33.12;28.35;95393.72;5088300;28;21207;-67
2022/06/19 09:01:23;;;;;;;22.30;5.88;;;;;;;33.47;26.97;95394.34;5085716;28;20105;-65
2022/06/19 09:06:59;;;;;;;16.58;6.30;;;;;;;33.98;25.56;95392.75;5083246;28;20035;-65
2022/06/19 09:09:38;;;;;;;16.70;5.38;;;;;;;33.83;25.89;95392.97;5055658;28;20021;-66
2022/06/19 09:12:22;;;;;;;25.73;5.95;;;;;;;34.02;23.95;95381.22;5081687;28;20111;-66
2022/06/19 09:15:09;;;;;;;18.80;5.63;;;;;;;34.27;24.39;95394.41;5091444;28;20036;-67
2022/06/19 09:18:02;;;;;;;19.55;6.57;;;;;;;34.31;25.20;95397.34;5091894;28;20108;-67
2022/06/19 09:20:43;;;;;;;15.18;5.47;;;;;;;34.05;25.12;95392.34;5091667;28;20028;-67
2022/06/19 09:23:35;;;;;;;15.70;6.05;;;;;;;34.97;23.48;95382.66;5090565;28;20066;-65
2022/06/19 09:26:14;;;;;;;18.13;5.47;;;;;;;34.74;24.08;95399.00;5080480;28;20424;-66
2022/06/19 09:28:57;;;;;;;16.70;5.63;;;;;;;34.61;23.65;95386.16;5089483;28;20039;-64
2022/06/19 09:31:31;;;;;;;14.63;5.63;;;;;;;34.41;25.11;95383.47;5082922;28;20135;-65
2022/06/19 09:34:05;;;;;;;20.13;5.88;;;;;;;34.83;23.44;95383.50;5082149;28;20028;-64
2022/06/19 09:36:42;;;;;;;;;;;;;;;35.22;22.90;95373.13;5092008;28;20024;-64
2022/06/19 09:39:20;;;;;;;14.43;5.20;;;;;;;34.88;22.56;95374.38;5091198;28;19916;-65
2022/06/19 09:42:33;;;;;;;15.60;5.30;;;;;;;35.25;22.70;95368.94;5073213;28;20418;-63
2022/06/19 09:45:26;;;;;;;19.13;5.70;;;;;;;35.48;21.55;95363.47;5073129;28;20759;-65
2022/06/19 09:48:09;;;;;;;17.10;5.22;;;;;;;35.19;23.18;95361.97;5083550;28;20112;-64
2022/06/19 09:51:03;;;;;;;26.42;6.10;;;;;;;35.74;21.67;95371.91;5086919;28;20028;-65
2022/06/19 09:53:37;;;;;;;20.75;5.22;;;;;;;36.21;19.80;95365.28;5083410;28;20028;-65
2022/06/19 09:56:12;;;;;;;16.75;5.32;;;;;;;34.97;23.06;95352.59;5083922;28;20028;-63
2022/06/19 09:58:44;;;;;;;22.35;5.55;;;;;;;35.27;22.74;95356.59;5087174;28;20055;-65
2022/06/19 10:01:10;;;;;;;23.55;5.60;;;;;;;35.74;21.96;95360.19;5090473;28;20467;-65
2022/06/19 10:03:44;;;;;;;19.55;6.03;;;;;;;35.99;21.61;95355.94;5090949;28;20031;-65
2022/06/19 10:06:19;;;;;;;22.75;5.47;;;;;;;35.43;22.48;95351.56;5089596;28;20023;-64
2022/06/19 10:08:51;;;;;;;12.95;5.72;;;;;;;35.67;22.38;95349.66;5090567;28;20508;-67
2022/06/19 10:11:22;;;;;;;13.73;4.70;;;;;;;36.18;20.79;95344.81;5090827;28;20653;-66
2022/06/19 10:13:56;;;;;;;19.88;5.50;;;;;;;35.93;20.50;95346.25;5085040;28;20016;-65
2022/06/19 10:16:27;;;;;;;24.33;6.10;;;;;;;35.83;20.72;95339.94;5082278;28;20522;-65
2022/06/19 10:18:55;;;;;;;16.10;5.55;;;;;;;35.80;20.61;95331.53;5082831;28;20069;-64
2022/06/19 10:24:35;;;;;;;18.33;6.25;;;;;;;35.78;20.72;95329.09;5087356;28;20066;-64
2022/06/19 10:27:19;;;;;;;22.52;5.22;;;;;;;35.99;20.21;95329.38;5089298;28;20012;-64
2022/06/19 10:30:18;;;;;;;24.73;7.53;;;;;;;36.04;20.94;95322.19;5081952;28;20035;-64
2022/06/19 10:32:49;;;;;;;21.75;5.70;;;;;;;36.54;19.63;95318.38;5062173;28;20051;-64
2022/06/19 10:35:55;;;;;;;28.02;5.30;;;;;;;36.86;18.59;95321.00;5094485;28;20038;-64
2022/06/19 10:38:40;;;;;;;19.00;5.25;;;;;;;36.78;18.76;95315.19;5066733;28;20044;-63
2022/06/19 10:41:08;;;;;;;17.83;4.75;;;;;;;37.22;17.59;95311.69;5090236;28;20102;-64
2022/06/19 10:43:52;;;;;;;17.63;5.15;;;;;;;36.62;19.12;95314.03;5090240;28;20036;-63
2022/06/19 10:46:18;;;;;;;16.92;5.05;;;;;;;36.56;18.57;95316.13;5089802;28;20386;-63
2022/06/19 10:49:10;;;;;;;23.58;5.65;;;;;;;36.60;19.08;95314.34;5090245;28;20107;-62
2022/06/19 10:52:08;;;;;;;15.57;4.45;;;;;;;36.72;18.44;95313.72;5090402;28;20032;-63
2022/06/19 10:54:43;;;;;;;20.80;5.82;;;;;;;36.74;18.34;95303.25;5090021;28;20028;-64
2022/06/19 10:57:29;;;;;;;29.00;5.72;;;;;;;36.22;18.15;95310.19;5090030;28;20020;-63
2022/06/19 10:59:55;;;;;;;16.25;4.93;;;;;;;36.07;17.67;95305.13;5089888;28;20032;-63
2022/06/19 11:05:10;;;;;;;15.93;5.22;;;;;;;36.09;19.64;95295.47;5090146;28;20027;-70
2022/06/19 11:07:35;;;;;;;13.82;4.70;;;;;;;36.70;18.01;95297.59;5090066;28;20070;-73
2022/06/19 11:10:08;;;;;;;14.00;4.63;;;;;;;36.52;17.63;95296.75;5090080;28;20439;-70
2022/06/19 11:12:43;;;;;;;15.55;4.78;;;;;;;36.32;18.83;95289.09;5090376;28;20031;-71
2022/06/19 11:15:18;;;;;;;28.58;6.38;;;;;;;36.33;18.74;95293.44;5089759;28;20069;-70
2022/06/19 11:17:44;;;;;;;23.08;5.20;;;;;;;36.80;18.50;95301.94;5089822;28;20020;-69
2022/06/19 11:20:26;;;;;;;20.50;5.38;;;;;;;36.67;18.07;95300.97;5089555;28;20028;-71
2022/06/19 11:23:24;;;;;;;17.98;5.07;;;;;;;36.47;17.05;95296.88;5089813;28;20033;-72
2022/06/19 11:26:09;;;;;;;28.25;6.03;;;;;;;36.47;17.82;95298.78;5073038;28;20040;-69
2022/06/19 11:28:58;;;;;;;13.00;5.13;;;;;;;36.46;18.78;95288.97;5089867;28;20028;-71
2022/06/19 11:31:24;;;;;;;27.27;5.60;;;;;;;36.92;17.57;95289.56;5090027;28;20047;-69
2022/06/19 11:33:54;;;;;;;18.70;4.47;;;;;;;36.74;16.96;95291.47;5089645;28;20474;-69
2022/06/19 11:36:35;;;;;;;13.02;4.35;;;;;;;36.93;16.09;95291.16;5071375;28;20429;-70
2022/06/19 11:39:22;;;;;;;26.13;5.00;;;;;;;36.65;17.94;95289.53;5089483;28;20111;-68
2022/06/19 11:41:48;;;;;;;18.85;4.63;;;;;;;36.68;17.71;95288.88;5089498;28;20031;-70
2022/06/19 11:44:19;;;;;;;13.38;4.60;;;;;;;36.74;17.81;95283.25;5089446;28;20020;-71
2022/06/19 11:46:51;;;;;;;21.80;5.07;;;;;;;36.68;17.64;95297.09;5089580;28;20032;-71
2022/06/19 11:49:32;;;;;;;15.93;4.70;;;;;;;36.85;18.47;95290.03;5071315;28;20020;-70
2022/06/19 11:52:01;;;;;;;15.82;4.65;;;;;;;37.02;17.65;95280.22;5089612;28;20055;-69